Ust' Kalmanka, Russia
Current Conditions -  °F | °C
As of 3:30 PM on Tuesday 21 Oct 2014 (Local Time) from UNBB Reporting Station
Broken Clouds Broken Clouds  
Wind Chill: 22°   Ceiling: 3300
Heat Index: 36°   Visibility: 6mi
Dew Point: 23°   Wind: 31mph
Humidity: 60%   Direction: 260°W
Pressure: 29.94"   Gusts: NA
Location:  52.12°N, 83.32°E
Report Text: UNBB 210830Z 26014MPS 9999 BKN033CB 02/M05 Q1014 NOSIG RMKQFE738/0984 24190059
Loading
Personal Weather Stations






























Interactive Weather Map
Tropical Storm Tracking
New forecast layout! Learn more

10-Day Weather Forecast

Advertisements
Track Severe Weather on mobile